createdAt,value
2023-05-30T00:01:08.508Z,23.16
2023-05-30T00:03:38.297Z,23.14
2023-05-30T00:04:32.909Z,23.38
2023-05-30T00:06:06.555Z,23.13
2023-05-30T00:08:33.676Z,23.13
2023-05-30T00:11:00.789Z,23.10
2023-05-30T00:13:41.633Z,23.09
2023-05-30T00:16:08.881Z,23.08
2023-05-30T00:18:36.014Z,23.09
2023-05-30T00:21:07.567Z,23.08
2023-05-30T00:23:36.966Z,23.10
2023-05-30T00:26:05.058Z,23.06
2023-05-30T00:28:32.212Z,23.05
2023-05-30T00:30:59.511Z,23.02
2023-05-30T00:33:27.350Z,22.98
2023-05-30T00:35:54.301Z,22.96
2023-05-30T00:41:14.513Z,22.86
2023-05-30T00:47:17.670Z,22.92
2023-05-30T00:49:09.069Z,22.76
2023-05-30T00:51:36.402Z,22.73
2023-05-30T00:54:04.380Z,22.69
2023-05-30T00:56:31.906Z,22.66
2023-05-30T00:59:00.717Z,22.61
2023-05-30T01:01:27.957Z,22.58
2023-05-30T01:03:57.765Z,22.51
2023-05-30T01:06:28.273Z,22.47
2023-05-30T01:08:55.635Z,22.46
2023-05-30T01:11:31.857Z,22.45
2023-05-30T01:14:17.937Z,22.44
2023-05-30T01:17:17.434Z,22.41
2023-05-30T01:20:17.983Z,22.36
2023-05-30T01:23:40.887Z,22.34
2023-05-30T01:26:32.745Z,22.30
2023-05-30T01:29:04.005Z,22.26
2023-05-30T01:31:33.889Z,22.24
2023-05-30T01:34:02.490Z,22.22
2023-05-30T01:36:31.952Z,22.17
2023-05-30T01:38:59.334Z,22.13
2023-05-30T01:41:38.220Z,22.11
2023-05-30T01:44:31.228Z,22.07
2023-05-30T01:47:15.063Z,22.03
2023-05-30T01:50:01.049Z,22.01
2023-05-30T01:52:32.991Z,22.01
2023-05-30T01:55:07.254Z,21.98
2023-05-30T01:57:47.209Z,21.94
2023-05-30T02:00:16.371Z,21.91
2023-05-30T02:02:45.959Z,21.89
2023-05-30T02:05:13.496Z,21.88
2023-05-30T02:07:40.817Z,21.86
2023-05-30T02:10:08.298Z,21.85
2023-05-30T02:12:36.455Z,21.82
2023-05-30T02:15:05.013Z,21.79
2023-05-30T02:17:33.578Z,21.74
2023-05-30T02:20:01.236Z,21.70
2023-05-30T02:22:36.059Z,21.65
2023-05-30T02:25:03.580Z,21.64
2023-05-30T02:27:30.884Z,21.62
2023-05-30T02:29:58.196Z,21.60
2023-05-30T02:32:25.396Z,21.59
2023-05-30T02:34:53.138Z,21.58
2023-05-30T02:37:20.166Z,21.56
2023-05-30T02:39:47.116Z,21.54
2023-05-30T02:42:14.073Z,21.51
2023-05-30T02:44:41.059Z,21.50
2023-05-30T02:47:10.016Z,21.49
2023-05-30T02:49:37.316Z,21.43
2023-05-30T02:52:05.243Z,21.43
2023-05-30T02:54:40.982Z,21.41
2023-05-30T02:57:26.458Z,21.38
2023-05-30T03:00:22.801Z,21.40
2023-05-30T03:03:13.214Z,21.40
2023-05-30T03:05:49.150Z,21.42
2023-05-30T03:08:32.024Z,21.38
2023-05-30T03:10:59.788Z,21.42
2023-05-30T03:13:27.078Z,21.45
2023-05-30T03:15:54.857Z,21.45
2023-05-30T03:18:21.796Z,21.45
2023-05-30T03:20:49.208Z,21.45
2023-05-30T03:23:17.631Z,21.47
2023-05-30T03:25:45.171Z,21.46
2023-05-30T03:28:12.433Z,21.47
2023-05-30T03:30:59.643Z,21.45
2023-05-30T03:33:29.374Z,21.46
2023-05-30T03:35:57.096Z,21.45
2023-05-30T03:38:24.045Z,21.44
2023-05-30T03:40:51.085Z,21.44
2023-05-30T03:43:18.011Z,21.44
2023-05-30T03:45:45.398Z,21.41
2023-05-30T03:48:12.809Z,21.37
2023-05-30T03:50:39.755Z,21.36
2023-05-30T03:53:07.026Z,21.36
2023-05-30T03:55:36.675Z,21.32
2023-05-30T03:58:03.864Z,21.33
2023-05-30T04:00:32.123Z,21.33
2023-05-30T04:03:02.064Z,21.33
2023-05-30T04:05:29.070Z,21.35
2023-05-30T04:07:56.144Z,21.36
2023-05-30T04:10:23.358Z,21.35
2023-05-30T04:12:52.260Z,21.31
2023-05-30T04:15:19.383Z,21.28
2023-05-30T04:17:47.178Z,21.28
2023-05-30T04:20:16.325Z,21.27
2023-05-30T04:22:44.948Z,21.28
2023-05-30T04:25:13.739Z,21.28
2023-05-30T04:27:49.408Z,21.29
2023-05-30T04:30:18.490Z,21.27
2023-05-30T04:32:46.418Z,21.30
2023-05-30T04:35:17.081Z,21.29
2023-05-30T04:37:45.562Z,21.29
2023-05-30T04:40:14.238Z,21.27
2023-05-30T04:42:43.345Z,21.29
2023-05-30T04:45:11.712Z,21.27
2023-05-30T04:47:40.212Z,21.27
2023-05-30T04:50:08.244Z,21.26
2023-05-30T04:52:35.395Z,21.27
2023-05-30T04:55:02.649Z,21.26
2023-05-30T04:57:30.084Z,21.28
2023-05-30T04:59:58.411Z,21.28
2023-05-30T05:02:29.956Z,21.29
2023-05-30T05:04:57.521Z,21.29
2023-05-30T05:07:37.978Z,21.27
2023-05-30T05:10:07.874Z,21.22
2023-05-30T05:12:34.871Z,21.21
2023-05-30T05:15:01.900Z,21.21
2023-05-30T05:17:29.210Z,21.23
2023-05-30T05:19:57.004Z,21.28
2023-05-30T05:22:24.031Z,21.30
2023-05-30T05:24:51.387Z,21.33
2023-05-30T05:27:18.523Z,21.36
2023-05-30T05:29:45.419Z,21.40
2023-05-30T05:32:12.409Z,21.44
2023-05-30T05:34:39.333Z,21.47
2023-05-30T05:37:06.716Z,21.54
2023-05-30T05:39:33.680Z,21.60
2023-05-30T05:42:02.475Z,21.67
2023-05-30T05:44:31.161Z,21.72
2023-05-30T05:46:59.963Z,21.76
2023-05-30T05:49:27.088Z,21.84
2023-05-30T05:51:54.847Z,21.88
2023-05-30T05:54:21.751Z,21.94
2023-05-30T05:56:49.007Z,22.00
2023-05-30T05:59:16.476Z,22.04
2023-05-30T06:01:46.499Z,22.09
2023-05-30T06:04:13.775Z,22.14
2023-05-30T06:06:40.987Z,22.19
2023-05-30T06:09:08.122Z,22.24
2023-05-30T06:11:35.086Z,22.29
2023-05-30T06:14:02.119Z,22.32
2023-05-30T06:16:29.253Z,22.37
2023-05-30T06:18:56.271Z,22.37
2023-05-30T06:21:23.603Z,22.43
2023-05-30T06:23:50.679Z,22.47
2023-05-30T06:26:17.745Z,22.50
2023-05-30T06:28:48.875Z,22.51
2023-05-30T06:31:16.182Z,22.53
2023-05-30T06:33:43.313Z,22.56
2023-05-30T06:36:11.503Z,22.57
2023-05-30T06:38:38.523Z,22.59
2023-05-30T06:41:05.539Z,22.60
2023-05-30T06:43:32.474Z,22.63
2023-05-30T06:45:59.509Z,22.63
2023-05-30T06:48:26.708Z,22.64
2023-05-30T06:50:54.768Z,22.68
2023-05-30T06:53:22.875Z,22.70
2023-05-30T06:55:50.116Z,22.72
2023-05-30T06:58:19.346Z,22.75
2023-05-30T07:00:46.601Z,22.75
2023-05-30T07:03:13.730Z,22.77
2023-05-30T07:05:40.903Z,22.77
2023-05-30T07:08:08.278Z,22.80
2023-05-30T07:10:36.253Z,22.85
2023-05-30T07:13:04.036Z,22.90
2023-05-30T07:15:32.579Z,22.93
2023-05-30T07:17:59.943Z,22.98
2023-05-30T07:20:27.244Z,23.03
2023-05-30T07:22:55.154Z,23.08
2023-05-30T07:25:22.014Z,23.12
2023-05-30T07:27:48.967Z,23.17
2023-05-30T07:30:16.006Z,23.21
2023-05-30T07:32:43.087Z,23.27
2023-05-30T07:35:10.089Z,23.32
2023-05-30T07:37:38.225Z,23.37
2023-05-30T07:40:06.569Z,23.42
2023-05-30T07:42:40.127Z,23.45
2023-05-30T07:45:07.965Z,23.48
2023-05-30T07:47:36.746Z,23.52
2023-05-30T07:50:04.138Z,23.56
2023-05-30T07:52:31.402Z,23.61
2023-05-30T07:54:58.340Z,23.66
2023-05-30T07:57:25.452Z,23.68
2023-05-30T07:59:52.527Z,23.70
2023-05-30T08:02:20.612Z,23.74
2023-05-30T08:04:47.782Z,23.79
2023-05-30T08:07:14.868Z,23.86
2023-05-30T08:09:42.043Z,23.91
2023-05-30T08:12:18.622Z,23.93
2023-05-30T08:14:46.427Z,24.00
2023-05-30T08:17:20.099Z,24.07
2023-05-30T08:19:47.033Z,24.12
2023-05-30T08:22:13.943Z,24.16
2023-05-30T08:24:44.562Z,24.20
2023-05-30T08:27:11.835Z,24.26
2023-05-30T08:29:39.521Z,24.34
2023-05-30T08:32:07.193Z,24.38
2023-05-30T08:34:34.198Z,24.39
2023-05-30T08:37:01.181Z,24.42
2023-05-30T08:39:28.159Z,24.46
2023-05-30T08:41:55.162Z,24.51
2023-05-30T08:44:22.098Z,24.58
2023-05-30T08:46:49.159Z,24.64
2023-05-30T08:49:23.173Z,24.69
2023-05-30T08:51:51.305Z,24.76
2023-05-30T08:54:27.243Z,24.80
2023-05-30T08:57:06.217Z,24.87
2023-05-30T08:59:33.531Z,24.89
2023-05-30T09:02:01.915Z,24.94
2023-05-30T09:04:30.930Z,24.98
2023-05-30T09:06:58.516Z,25.04
2023-05-30T09:09:25.686Z,25.08
2023-05-30T09:11:53.539Z,25.14
2023-05-30T09:14:21.550Z,25.22
2023-05-30T09:16:48.891Z,25.27
2023-05-30T09:19:17.221Z,25.30
2023-05-30T09:21:45.046Z,25.34
2023-05-30T09:24:12.062Z,25.39
2023-05-30T09:26:39.977Z,25.46
2023-05-30T09:29:11.922Z,25.52
2023-05-30T09:31:39.332Z,25.56
2023-05-30T09:34:09.049Z,25.63
2023-05-30T09:36:36.650Z,25.67
2023-05-30T09:39:08.028Z,25.70
2023-05-30T09:41:36.024Z,25.77
2023-05-30T09:44:07.297Z,25.90
2023-05-30T09:46:36.447Z,25.99
2023-05-30T09:49:14.232Z,26.05
2023-05-30T09:51:42.434Z,26.11
2023-05-30T09:54:10.855Z,26.21
2023-05-30T09:56:42.253Z,26.25
2023-05-30T09:59:11.692Z,26.25
2023-05-30T10:01:49.687Z,26.30
2023-05-30T10:04:22.908Z,26.37
2023-05-30T10:06:54.790Z,26.42
2023-05-30T10:09:24.081Z,26.47
2023-05-30T10:11:52.886Z,26.50
2023-05-30T10:14:20.469Z,26.55
2023-05-30T10:16:53.076Z,26.64
2023-05-30T10:19:27.255Z,26.72
2023-05-30T10:21:59.884Z,26.80
2023-05-30T10:24:27.687Z,26.87
2023-05-30T10:27:03.002Z,26.94
2023-05-30T10:29:42.104Z,26.98
2023-05-30T10:32:09.233Z,27.02
2023-05-30T10:34:49.444Z,27.07
2023-05-30T10:37:17.634Z,27.07
2023-05-30T10:40:11.786Z,27.15
2023-05-30T10:42:57.364Z,27.18
2023-05-30T10:45:53.256Z,27.27
2023-05-30T10:48:27.507Z,27.35
2023-05-30T10:51:00.965Z,27.32
2023-05-30T10:53:29.137Z,27.24
2023-05-30T10:55:56.736Z,27.22
2023-05-30T10:58:43.536Z,27.25
2023-05-30T11:01:25.257Z,27.31
2023-05-30T11:04:15.613Z,27.40
2023-05-30T11:06:47.268Z,27.39
2023-05-30T11:09:17.083Z,27.48
2023-05-30T11:11:55.996Z,27.56
2023-05-30T11:14:37.141Z,27.56
2023-05-30T11:17:09.647Z,27.60
2023-05-30T11:19:40.118Z,27.63
2023-05-30T11:22:11.653Z,27.69
2023-05-30T11:24:39.276Z,27.72
2023-05-30T11:27:09.195Z,27.76
2023-05-30T11:29:38.088Z,27.87
2023-05-30T11:32:08.664Z,27.97
2023-05-30T11:34:36.465Z,27.92
2023-05-30T11:37:05.107Z,27.94
2023-05-30T11:39:33.651Z,27.95
2023-05-30T11:42:02.305Z,27.96
2023-05-30T11:44:33.196Z,28.03
2023-05-30T11:47:31.713Z,28.09
2023-05-30T11:49:59.151Z,28.19
2023-05-30T11:52:26.507Z,28.22
2023-05-30T11:55:00.078Z,28.26
2023-05-30T11:57:28.699Z,28.30
2023-05-30T11:59:57.302Z,28.35
2023-05-30T12:02:33.936Z,28.47
2023-05-30T12:05:03.147Z,28.57
2023-05-30T12:07:33.192Z,28.69
2023-05-30T12:10:00.321Z,28.79
2023-05-30T12:12:28.521Z,28.86
2023-05-30T12:15:00.357Z,28.95
2023-05-30T12:17:28.161Z,29.01
2023-05-30T12:20:01.223Z,29.11
2023-05-30T12:22:34.563Z,29.19
2023-05-30T12:25:10.644Z,29.20
2023-05-30T12:27:48.244Z,29.29
2023-05-30T12:30:18.159Z,29.38
2023-05-30T12:32:48.751Z,29.40
2023-05-30T12:35:19.573Z,29.42
2023-05-30T12:37:46.589Z,29.45
2023-05-30T12:40:13.783Z,29.40
2023-05-30T12:42:47.396Z,29.39
2023-05-30T12:45:15.720Z,29.41
2023-05-30T12:47:42.753Z,29.43
2023-05-30T12:50:10.406Z,29.48
2023-05-30T12:52:37.296Z,29.52
2023-05-30T12:55:04.715Z,29.57
2023-05-30T12:57:32.552Z,29.65
2023-05-30T12:59:59.796Z,29.72
2023-05-30T13:02:27.235Z,29.80
2023-05-30T13:04:55.766Z,29.89
2023-05-30T13:07:23.202Z,29.97
2023-05-30T13:09:50.653Z,30.03
2023-05-30T13:12:19.130Z,30.11
2023-05-30T13:14:47.706Z,30.13
2023-05-30T13:17:15.108Z,30.18
2023-05-30T13:19:42.174Z,30.21
2023-05-30T13:22:11.575Z,30.22
2023-05-30T13:24:39.560Z,30.31
2023-05-30T13:27:07.742Z,30.38
2023-05-30T13:29:35.845Z,30.41
2023-05-30T13:32:03.015Z,30.48
2023-05-30T13:34:30.826Z,30.53
2023-05-30T13:36:58.772Z,30.59
2023-05-30T13:39:26.539Z,30.61
2023-05-30T13:41:53.469Z,30.57
2023-05-30T13:44:20.958Z,30.49
2023-05-30T13:46:47.970Z,30.51
2023-05-30T13:49:15.011Z,30.58
2023-05-30T13:51:43.463Z,30.54
2023-05-30T13:54:10.591Z,30.47
2023-05-30T13:56:37.574Z,30.44
2023-05-30T13:59:04.594Z,30.48
2023-05-30T14:01:31.796Z,30.48
2023-05-30T14:04:00.971Z,30.48
2023-05-30T14:06:28.271Z,30.39
2023-05-30T14:08:55.461Z,30.34
2023-05-30T14:11:22.698Z,30.35
2023-05-30T14:13:50.429Z,30.44
2023-05-30T14:16:19.548Z,30.57
2023-05-30T14:18:47.397Z,30.65
2023-05-30T14:21:15.761Z,30.67
2023-05-30T14:23:43.302Z,30.70
2023-05-30T14:26:10.547Z,30.76
2023-05-30T14:28:40.314Z,30.71
2023-05-30T14:31:11.330Z,30.64
2023-05-30T14:33:38.515Z,30.62
2023-05-30T14:36:06.510Z,30.58
2023-05-30T14:38:33.509Z,30.63
2023-05-30T14:41:02.437Z,30.59
2023-05-30T14:43:29.924Z,30.47
2023-05-30T14:45:57.023Z,30.47
2023-05-30T14:48:24.064Z,30.52
2023-05-30T14:50:51.118Z,30.50
2023-05-30T14:53:18.140Z,30.58
2023-05-30T14:55:45.991Z,30.63
2023-05-30T14:58:12.936Z,30.65
2023-05-30T15:00:39.962Z,30.60
2023-05-30T15:03:07.362Z,30.47
2023-05-30T15:05:34.686Z,30.35
2023-05-30T15:08:01.959Z,30.23
2023-05-30T15:10:29.074Z,30.10
2023-05-30T15:12:56.058Z,29.97
2023-05-30T15:15:23.432Z,29.85
2023-05-30T15:17:50.495Z,29.78
2023-05-30T15:20:18.140Z,29.69
2023-05-30T15:22:45.060Z,29.69
2023-05-30T15:25:11.984Z,29.74
2023-05-30T15:27:38.925Z,29.70
2023-05-30T15:30:06.778Z,29.65
2023-05-30T15:32:33.724Z,29.58
2023-05-30T15:35:00.904Z,29.56
2023-05-30T15:37:27.886Z,29.50
2023-05-30T15:39:55.573Z,29.46
2023-05-30T15:42:22.581Z,29.40
2023-05-30T15:44:49.504Z,29.36
2023-05-30T15:47:16.459Z,29.31
2023-05-30T15:49:43.607Z,29.29
2023-05-30T15:52:10.777Z,29.29
2023-05-30T15:54:37.767Z,29.25
2023-05-30T15:57:06.450Z,29.24
2023-05-30T15:59:33.455Z,29.23
2023-05-30T16:02:03.129Z,29.25
2023-05-30T16:04:30.298Z,29.25
2023-05-30T16:06:58.431Z,29.26
2023-05-30T16:09:25.483Z,29.27
2023-05-30T16:11:52.512Z,29.29
2023-05-30T16:14:21.552Z,29.27
2023-05-30T16:16:48.487Z,29.28
2023-05-30T16:19:15.526Z,29.28
2023-05-30T16:21:42.554Z,29.24
2023-05-30T16:24:09.844Z,29.26
2023-05-30T16:26:36.854Z,29.25
2023-05-30T16:29:03.976Z,29.22
2023-05-30T16:31:31.140Z,29.19
2023-05-30T16:33:58.191Z,29.21
2023-05-30T16:36:28.742Z,29.18
2023-05-30T16:38:56.524Z,29.20
2023-05-30T16:41:23.810Z,29.16
2023-05-30T16:43:52.293Z,29.14
2023-05-30T16:46:19.250Z,29.16
2023-05-30T16:48:46.455Z,29.14
2023-05-30T16:51:19.820Z,29.09
2023-05-30T16:53:47.349Z,29.06
2023-05-30T16:56:17.971Z,29.00
2023-05-30T16:58:46.420Z,28.96
2023-05-30T17:01:14.266Z,28.88
2023-05-30T17:03:44.388Z,28.85
2023-05-30T17:06:11.916Z,28.78
2023-05-30T17:08:39.237Z,28.72
2023-05-30T17:11:06.307Z,28.68
2023-05-30T17:13:33.969Z,28.63
2023-05-30T17:16:01.736Z,28.58
2023-05-30T17:18:28.906Z,28.54
2023-05-30T17:20:57.130Z,28.51
2023-05-30T17:23:27.522Z,28.47
2023-05-30T17:26:02.141Z,28.43
2023-05-30T17:28:30.702Z,28.40
2023-05-30T17:30:57.899Z,28.37
2023-05-30T17:33:24.982Z,28.33
2023-05-30T17:35:52.480Z,28.30
2023-05-30T17:38:19.753Z,28.25
2023-05-30T17:40:48.607Z,28.20
2023-05-30T17:43:17.437Z,28.14
2023-05-30T17:45:44.901Z,28.09
2023-05-30T17:48:12.273Z,28.05
2023-05-30T17:50:40.158Z,28.03
2023-05-30T17:53:07.650Z,28.00
2023-05-30T17:55:34.896Z,27.95
2023-05-30T17:58:02.246Z,27.93
2023-05-30T18:00:30.624Z,27.88
2023-05-30T18:02:58.543Z,27.87
2023-05-30T18:05:27.953Z,27.84
2023-05-30T18:07:55.036Z,27.81
2023-05-30T18:10:22.207Z,27.78
2023-05-30T18:12:49.253Z,27.76
2023-05-30T18:15:16.300Z,27.73
2023-05-30T18:17:43.441Z,27.70
2023-05-30T18:20:11.764Z,27.66
2023-05-30T18:22:39.424Z,27.64
2023-05-30T18:25:07.197Z,27.60
2023-05-30T18:27:34.181Z,27.57
2023-05-30T18:30:02.068Z,27.55
2023-05-30T18:32:29.803Z,27.51
2023-05-30T18:34:56.965Z,27.48
2023-05-30T18:37:23.902Z,27.45
2023-05-30T18:39:52.158Z,27.43
2023-05-30T18:42:19.115Z,27.41
2023-05-30T18:44:46.283Z,27.38
2023-05-30T18:47:14.968Z,27.34
2023-05-30T18:49:43.572Z,27.31
2023-05-30T18:52:11.407Z,27.25
2023-05-30T18:54:40.088Z,27.20
2023-05-30T18:57:08.511Z,27.15
2023-05-30T18:59:37.343Z,27.06
2023-05-30T19:02:04.752Z,27.00
2023-05-30T19:04:31.855Z,26.92
2023-05-30T19:06:59.714Z,26.85
2023-05-30T19:09:26.854Z,26.79
2023-05-30T19:11:53.894Z,26.75
2023-05-30T19:14:21.273Z,26.70
2023-05-30T19:16:48.346Z,26.66
2023-05-30T19:19:16.184Z,26.59
2023-05-30T19:21:43.378Z,26.56
2023-05-30T19:24:10.527Z,26.53
2023-05-30T19:26:37.500Z,26.50
2023-05-30T19:29:04.442Z,26.46
2023-05-30T19:31:31.549Z,26.43
2023-05-30T19:33:58.474Z,26.39
2023-05-30T19:36:25.642Z,26.34
2023-05-30T19:38:52.809Z,26.32
2023-05-30T19:41:21.957Z,26.30
2023-05-30T19:43:50.403Z,26.27
2023-05-30T19:46:17.411Z,26.22
2023-05-30T19:48:44.375Z,26.18
2023-05-30T19:51:11.492Z,26.16
2023-05-30T19:53:38.459Z,26.12
2023-05-30T19:56:05.972Z,26.08
2023-05-30T19:58:33.103Z,26.04
2023-05-30T20:01:11.056Z,26.03
2023-05-30T20:03:39.142Z,26.00
2023-05-30T20:06:06.806Z,25.98
2023-05-30T20:08:33.956Z,25.94
2023-05-30T20:11:01.375Z,25.91
2023-05-30T20:13:30.616Z,25.86
2023-05-30T20:15:57.666Z,25.80
2023-05-30T20:18:24.645Z,25.76
2023-05-30T20:20:56.472Z,25.71
2023-05-30T20:23:24.682Z,25.62
2023-05-30T20:25:51.741Z,25.56
2023-05-30T20:28:20.672Z,25.55
2023-05-30T20:30:47.684Z,25.53
2023-05-30T20:33:15.011Z,25.54
2023-05-30T20:35:42.000Z,25.57
2023-05-30T20:38:08.957Z,25.55
2023-05-30T20:40:36.424Z,25.52
2023-05-30T20:43:03.398Z,25.51
2023-05-30T20:45:30.904Z,25.49
2023-05-30T20:47:58.035Z,25.47
2023-05-30T20:50:25.911Z,25.44
2023-05-30T20:52:55.421Z,25.42
2023-05-30T20:55:26.073Z,25.40
2023-05-30T20:57:53.060Z,25.35
2023-05-30T21:00:20.522Z,25.29
2023-05-30T21:02:47.714Z,25.28
2023-05-30T21:05:14.802Z,25.28
2023-05-30T21:07:41.766Z,25.28
2023-05-30T21:10:10.164Z,25.24
2023-05-30T21:12:37.690Z,25.23
2023-05-30T21:15:05.406Z,25.21
2023-05-30T21:17:32.385Z,25.21
2023-05-30T21:19:59.395Z,25.11
2023-05-30T21:22:26.604Z,25.04
2023-05-30T21:24:53.587Z,25.08
2023-05-30T21:27:20.631Z,25.06
2023-05-30T21:29:47.652Z,25.05
2023-05-30T21:32:14.642Z,25.04
2023-05-30T21:34:41.539Z,25.01
2023-05-30T21:37:08.473Z,24.95
2023-05-30T21:39:36.235Z,24.94
2023-05-30T21:42:03.748Z,24.92
2023-05-30T21:44:30.905Z,24.89
2023-05-30T21:46:57.828Z,24.88
2023-05-30T21:49:24.716Z,24.84
2023-05-30T21:51:51.714Z,24.83
2023-05-30T21:54:43.729Z,24.82
2023-05-30T21:57:10.846Z,24.79
2023-05-30T21:59:38.777Z,24.74
2023-05-30T22:02:07.475Z,24.71
2023-05-30T22:04:35.483Z,24.66
2023-05-30T22:07:04.014Z,24.62
2023-05-30T22:09:31.079Z,24.54
2023-05-30T22:11:58.051Z,24.51
2023-05-30T22:14:25.105Z,24.46
2023-05-30T22:16:52.045Z,24.44
2023-05-30T22:19:19.020Z,24.42
2023-05-30T22:22:01.439Z,24.36
2023-05-30T22:24:30.306Z,24.32
2023-05-30T22:26:57.293Z,24.31
2023-05-30T22:29:24.268Z,24.32
2023-05-30T22:31:51.226Z,24.32
2023-05-30T22:34:18.332Z,24.27
2023-05-30T22:36:47.188Z,24.25
2023-05-30T22:39:14.531Z,24.17
2023-05-30T22:41:41.808Z,24.16
2023-05-30T22:44:08.788Z,24.16
2023-05-30T22:46:35.697Z,24.14
2023-05-30T22:49:02.662Z,24.09
2023-05-30T22:51:29.721Z,24.06
2023-05-30T22:54:01.011Z,24.02
2023-05-30T22:56:28.887Z,23.98
2023-05-30T22:58:55.961Z,23.94
2023-05-30T23:01:22.937Z,23.92
2023-05-30T23:03:49.939Z,23.91
2023-05-30T23:06:16.857Z,23.91
2023-05-30T23:08:43.862Z,23.89
2023-05-30T23:11:11.231Z,23.87
2023-05-30T23:13:38.839Z,23.83
2023-05-30T23:16:06.387Z,23.79
2023-05-30T23:18:33.780Z,23.77
2023-05-30T23:21:01.302Z,23.75
2023-05-30T23:23:28.832Z,23.68
2023-05-30T23:25:55.872Z,23.62
2023-05-30T23:28:23.429Z,23.58
2023-05-30T23:30:50.335Z,23.52
2023-05-30T23:33:17.323Z,23.50
2023-05-30T23:35:44.269Z,23.47
2023-05-30T23:38:11.723Z,23.44
2023-05-30T23:40:38.669Z,23.41
2023-05-30T23:43:05.641Z,23.37
2023-05-30T23:45:32.568Z,23.34
2023-05-30T23:47:59.618Z,23.31
2023-05-30T23:50:26.732Z,23.29
2023-05-30T23:52:53.630Z,23.29
2023-05-30T23:55:20.689Z,23.27
2023-05-30T23:57:47.808Z,23.24
